sensor_id;sensor_type;location;lat;lon;timestamp;P1;durP1;ratioP1;P2;durP2;ratioP2
79122;SDS011;68526;44.600;26.032;2023-09-12T00:00:09;6.20;;;4.78;;
79122;SDS011;68526;44.600;26.032;2023-09-12T00:00:26;8.63;;;4.80;;
79122;SDS011;68526;44.600;26.032;2023-09-12T00:00:42;10.93;;;4.90;;
79122;SDS011;68526;44.600;26.032;2023-09-12T00:01:03;8.45;;;4.90;;
79122;SDS011;68526;44.600;26.032;2023-09-12T00:01:20;9.02;;;4.80;;
79122;SDS011;68526;44.600;26.032;2023-09-12T00:01:36;7.80;;;4.70;;
79122;SDS011;68526;44.600;26.032;2023-09-12T00:01:53;5.40;;;4.50;;
79122;SDS011;68526;44.600;26.032;2023-09-12T00:02:09;7.22;;;4.63;;
79122;SDS011;68526;44.600;26.032;2023-09-12T00:02:25;7.72;;;4.63;;
79122;SDS011;68526;44.600;26.032;2023-09-12T00:02:41;7.47;;;4.50;;
79122;SDS011;68526;44.600;26.032;2023-09-12T00:02:57;9.47;;;4.70;;
79122;SDS011;68526;44.600;26.032;2023-09-12T00:03:13;11.50;;;4.90;;
79122;SDS011;68526;44.600;26.032;2023-09-12T00:03:29;11.23;;;4.88;;
79122;SDS011;68526;44.600;26.032;2023-09-12T00:03:44;8.75;;;4.80;;
79122;SDS011;68526;44.600;26.032;2023-09-12T00:04:01;7.68;;;4.75;;
79122;SDS011;68526;44.600;26.032;2023-09-12T00:04:17;8.60;;;4.70;;
79122;SDS011;68526;44.600;26.032;2023-09-12T00:04:33;8.13;;;4.60;;
79122;SDS011;68526;44.600;26.032;2023-09-12T00:04:49;8.13;;;4.88;;
79122;SDS011;68526;44.600;26.032;2023-09-12T00:05:06;8.10;;;5.00;;
79122;SDS011;68526;44.600;26.032;2023-09-12T00:05:22;7.43;;;4.78;;
79122;SDS011;68526;44.600;26.032;2023-09-12T00:05:38;7.22;;;4.70;;
79122;SDS011;68526;44.600;26.032;2023-09-12T00:05:54;8.65;;;4.65;;
79122;SDS011;68526;44.600;26.032;2023-09-12T00:06:13;10.30;;;4.65;;
79122;SDS011;68526;44.600;26.032;2023-09-12T00:06:29;10.77;;;4.85;;
79122;SDS011;68526;44.600;26.032;2023-09-12T00:06:45;7.43;;;4.60;;
79122;SDS011;68526;44.600;26.032;2023-09-12T00:07:01;7.93;;;4.90;;
79122;SDS011;68526;44.600;26.032;2023-09-12T00:07:17;8.43;;;5.00;;
79122;SDS011;68526;44.600;26.032;2023-09-12T00:07:33;7.53;;;4.60;;
79122;SDS011;68526;44.600;26.032;2023-09-12T00:07:51;6.70;;;4.75;;
79122;SDS011;68526;44.600;26.032;2023-09-12T00:08:09;6.93;;;4.70;;
79122;SDS011;68526;44.600;26.032;2023-09-12T00:08:25;11.65;;;4.90;;
79122;SDS011;68526;44.600;26.032;2023-09-12T00:08:41;11.23;;;5.07;;
79122;SDS011;68526;44.600;26.032;2023-09-12T00:08:57;8.25;;;4.75;;
79122;SDS011;68526;44.600;26.032;2023-09-12T00:09:12;8.63;;;4.72;;
79122;SDS011;68526;44.600;26.032;2023-09-12T00:09:29;7.90;;;4.83;;
79122;SDS011;68526;44.600;26.032;2023-09-12T00:09:45;7.22;;;4.72;;
79122;SDS011;68526;44.600;26.032;2023-09-12T00:10:00;8.00;;;4.90;;
79122;SDS011;68526;44.600;26.032;2023-09-12T00:10:18;8.47;;;4.80;;
79122;SDS011;68526;44.600;26.032;2023-09-12T00:10:35;7.43;;;4.53;;
79122;SDS011;68526;44.600;26.032;2023-09-12T00:11:01;7.32;;;4.50;;
79122;SDS011;68526;44.600;26.032;2023-09-12T00:11:17;9.65;;;4.85;;
79122;SDS011;68526;44.600;26.032;2023-09-12T00:11:33;8.68;;;4.88;;
79122;SDS011;68526;44.600;26.032;2023-09-12T00:11:49;8.77;;;4.93;;
79122;SDS011;68526;44.600;26.032;2023-09-12T00:12:06;7.80;;;4.68;;
79122;SDS011;68526;44.600;26.032;2023-09-12T00:12:23;5.82;;;4.10;;
79122;SDS011;68526;44.600;26.032;2023-09-12T00:12:40;7.90;;;4.50;;
79122;SDS011;68526;44.600;26.032;2023-09-12T00:12:55;10.70;;;5.13;;
79122;SDS011;68526;44.600;26.032;2023-09-12T00:13:11;10.80;;;5.15;;
79122;SDS011;68526;44.600;26.032;2023-09-12T00:13:27;8.73;;;4.80;;
79122;SDS011;68526;44.600;26.032;2023-09-12T00:13:43;9.68;;;4.70;;
79122;SDS011;68526;44.600;26.032;2023-09-12T00:14:00;9.93;;;4.90;;
79122;SDS011;68526;44.600;26.032;2023-09-12T00:14:16;8.38;;;4.85;;
79122;SDS011;68526;44.600;26.032;2023-09-12T00:14:32;8.63;;;4.80;;
79122;SDS011;68526;44.600;26.032;2023-09-12T00:14:48;8.98;;;4.65;;
79122;SDS011;68526;44.600;26.032;2023-09-12T00:15:04;8.15;;;4.60;;
79122;SDS011;68526;44.600;26.032;2023-09-12T00:15:23;8.70;;;4.95;;
79122;SDS011;68526;44.600;26.032;2023-09-12T00:15:39;8.90;;;4.72;;
79122;SDS011;68526;44.600;26.032;2023-09-12T00:15:55;8.07;;;4.60;;
79122;SDS011;68526;44.600;26.032;2023-09-12T00:16:13;9.60;;;4.88;;
79122;SDS011;68526;44.600;26.032;2023-09-12T00:16:28;9.48;;;4.88;;
79122;SDS011;68526;44.600;26.032;2023-09-12T00:16:44;8.02;;;4.82;;
79122;SDS011;68526;44.600;26.032;2023-09-12T00:17:00;7.53;;;4.78;;
79122;SDS011;68526;44.600;26.032;2023-09-12T00:17:16;7.53;;;4.78;;
79122;SDS011;68526;44.600;26.032;2023-09-12T00:17:32;7.25;;;4.90;;
79122;SDS011;68526;44.600;26.032;2023-09-12T00:17:47;8.15;;;5.03;;
79122;SDS011;68526;44.600;26.032;2023-09-12T00:18:04;9.05;;;4.90;;
79122;SDS011;68526;44.600;26.032;2023-09-12T00:18:20;9.65;;;5.00;;
79122;SDS011;68526;44.600;26.032;2023-09-12T00:18:36;9.55;;;5.22;;
79122;SDS011;68526;44.600;26.032;2023-09-12T00:18:52;8.65;;;5.15;;
79122;SDS011;68526;44.600;26.032;2023-09-12T00:19:08;7.43;;;4.68;;
79122;SDS011;68526;44.600;26.032;2023-09-12T00:19:24;8.20;;;4.80;;
79122;SDS011;68526;44.600;26.032;2023-09-12T00:19:39;8.15;;;4.82;;
79122;SDS011;68526;44.600;26.032;2023-09-12T00:19:55;7.53;;;4.50;;
79122;SDS011;68526;44.600;26.032;2023-09-12T00:20:12;8.52;;;4.78;;
79122;SDS011;68526;44.600;26.032;2023-09-12T00:20:28;7.90;;;5.00;;
79122;SDS011;68526;44.600;26.032;2023-09-12T00:20:44;8.93;;;4.93;;
79122;SDS011;68526;44.600;26.032;2023-09-12T00:21:00;9.90;;;4.72;;
79122;SDS011;68526;44.600;26.032;2023-09-12T00:21:15;9.73;;;4.65;;
79122;SDS011;68526;44.600;26.032;2023-09-12T00:21:31;8.70;;;4.72;;
79122;SDS011;68526;44.600;26.032;2023-09-12T00:21:48;7.88;;;4.57;;
79122;SDS011;68526;44.600;26.032;2023-09-12T00:22:04;7.95;;;4.50;;
79122;SDS011;68526;44.600;26.032;2023-09-12T00:22:20;7.60;;;4.57;;
79122;SDS011;68526;44.600;26.032;2023-09-12T00:22:36;6.30;;;4.63;;
79122;SDS011;68526;44.600;26.032;2023-09-12T00:22:51;6.27;;;4.73;;
79122;SDS011;68526;44.600;26.032;2023-09-12T00:23:09;8.75;;;5.20;;
79122;SDS011;68526;44.600;26.032;2023-09-12T00:23:25;10.95;;;5.05;;
79122;SDS011;68526;44.600;26.032;2023-09-12T00:23:41;10.85;;;4.80;;
79122;SDS011;68526;44.600;26.032;2023-09-12T00:23:58;7.70;;;4.53;;
79122;SDS011;68526;44.600;26.032;2023-09-12T00:24:14;7.00;;;4.57;;
79122;SDS011;68526;44.600;26.032;2023-09-12T00:24:30;8.57;;;4.65;;
79122;SDS011;68526;44.600;26.032;2023-09-12T00:24:46;8.23;;;4.33;;
79122;SDS011;68526;44.600;26.032;2023-09-12T00:25:02;6.47;;;4.47;;
79122;SDS011;68526;44.600;26.032;2023-09-12T00:25:18;6.90;;;4.88;;
79122;SDS011;68526;44.600;26.032;2023-09-12T00:25:35;6.85;;;4.53;;
79122;SDS011;68526;44.600;26.032;2023-09-12T00:25:51;7.03;;;4.47;;
79122;SDS011;68526;44.600;26.032;2023-09-12T00:26:08;7.50;;;4.65;;
79122;SDS011;68526;44.600;26.032;2023-09-12T00:26:24;7.53;;;4.88;;
79122;SDS011;68526;44.600;26.032;2023-09-12T00:26:39;7.85;;;4.88;;
79122;SDS011;68526;44.600;26.032;2023-09-12T00:26:55;8.27;;;4.60;;
79122;SDS011;68526;44.600;26.032;2023-09-12T00:27:11;8.40;;;4.68;;
79122;SDS011;68526;44.600;26.032;2023-09-12T00:27:27;7.60;;;4.68;;
79122;SDS011;68526;44.600;26.032;2023-09-12T00:27:43;7.33;;;4.57;;
79122;SDS011;68526;44.600;26.032;2023-09-12T00:28:00;7.68;;;4.85;;
79122;SDS011;68526;44.600;26.032;2023-09-12T00:28:15;7.90;;;4.85;;
79122;SDS011;68526;44.600;26.032;2023-09-12T00:28:31;8.93;;;4.72;;
79122;SDS011;68526;44.600;26.032;2023-09-12T00:28:48;8.43;;;4.70;;
79122;SDS011;68526;44.600;26.032;2023-09-12T00:29:04;7.53;;;4.60;;
79122;SDS011;68526;44.600;26.032;2023-09-12T00:29:20;7.53;;;4.57;;
79122;SDS011;68526;44.600;26.032;2023-09-12T00:29:36;6.82;;;4.72;;
79122;SDS011;68526;44.600;26.032;2023-09-12T00:29:51;8.20;;;4.60;;
79122;SDS011;68526;44.600;26.032;2023-09-12T00:30:09;8.57;;;4.43;;
79122;SDS011;68526;44.600;26.032;2023-09-12T00:30:25;8.38;;;4.68;;
79122;SDS011;68526;44.600;26.032;2023-09-12T00:30:41;8.57;;;4.90;;
79122;SDS011;68526;44.600;26.032;2023-09-12T00:30:57;8.38;;;4.97;;
79122;SDS011;68526;44.600;26.032;2023-09-12T00:31:13;11.00;;;4.90;;
79122;SDS011;68526;44.600;26.032;2023-09-12T00:31:29;9.35;;;4.70;;
79122;SDS011;68526;44.600;26.032;2023-09-12T00:31:44;6.03;;;4.67;;
79122;SDS011;68526;44.600;26.032;2023-09-12T00:32:01;6.90;;;4.63;;
79122;SDS011;68526;44.600;26.032;2023-09-12T00:32:17;6.88;;;4.65;;
79122;SDS011;68526;44.600;26.032;2023-09-12T00:32:33;8.68;;;4.97;;
79122;SDS011;68526;44.600;26.032;2023-09-12T00:32:49;9.52;;;4.90;;
79122;SDS011;68526;44.600;26.032;2023-09-12T00:33:05;8.98;;;4.72;;
79122;SDS011;68526;44.600;26.032;2023-09-12T00:33:21;8.65;;;4.88;;
79122;SDS011;68526;44.600;26.032;2023-09-12T00:33:36;8.55;;;4.72;;
79122;SDS011;68526;44.600;26.032;2023-09-12T00:33:53;9.85;;;4.95;;
79122;SDS011;68526;44.600;26.032;2023-09-12T00:34:09;8.97;;;4.93;;
79122;SDS011;68526;44.600;26.032;2023-09-12T00:34:25;8.90;;;4.53;;
79122;SDS011;68526;44.600;26.032;2023-09-12T00:34:41;8.10;;;4.32;;
79122;SDS011;68526;44.600;26.032;2023-09-12T00:34:57;7.55;;;4.30;;
79122;SDS011;68526;44.600;26.032;2023-09-12T00:35:12;7.95;;;4.45;;
79122;SDS011;68526;44.600;26.032;2023-09-12T00:35:28;8.18;;;4.75;;
79122;SDS011;68526;44.600;26.032;2023-09-12T00:35:45;8.13;;;4.78;;
79122;SDS011;68526;44.600;26.032;2023-09-12T00:36:01;8.55;;;4.95;;
79122;SDS011;68526;44.600;26.032;2023-09-12T00:36:17;8.57;;;5.05;;
79122;SDS011;68526;44.600;26.032;2023-09-12T00:36:32;8.63;;;4.85;;
79122;SDS011;68526;44.600;26.032;2023-09-12T00:36:48;9.48;;;4.80;;
79122;SDS011;68526;44.600;26.032;2023-09-12T00:37:04;8.48;;;4.68;;
79122;SDS011;68526;44.600;26.032;2023-09-12T00:37:21;7.97;;;4.47;;
79122;SDS011;68526;44.600;26.032;2023-09-12T00:37:37;8.30;;;4.33;;
79122;SDS011;68526;44.600;26.032;2023-09-12T00:37:53;6.85;;;4.25;;
79122;SDS011;68526;44.600;26.032;2023-09-12T00:38:09;6.90;;;4.63;;
79122;SDS011;68526;44.600;26.032;2023-09-12T00:38:25;8.63;;;4.90;;
79122;SDS011;68526;44.600;26.032;2023-09-12T00:38:40;9.07;;;5.00;;
79122;SDS011;68526;44.600;26.032;2023-09-12T00:38:56;7.77;;;4.80;;
79122;SDS011;68526;44.600;26.032;2023-09-12T00:39:13;6.90;;;4.53;;
79122;SDS011;68526;44.600;26.032;2023-09-12T00:39:29;6.82;;;4.57;;
79122;SDS011;68526;44.600;26.032;2023-09-12T00:39:45;8.00;;;4.63;;
79122;SDS011;68526;44.600;26.032;2023-09-12T00:40:02;8.55;;;4.70;;
79122;SDS011;68526;44.600;26.032;2023-09-12T00:40:19;7.03;;;4.53;;
79122;SDS011;68526;44.600;26.032;2023-09-12T00:40:36;6.75;;;4.50;;
79122;SDS011;68526;44.600;26.032;2023-09-12T00:40:52;7.97;;;4.70;;
79122;SDS011;68526;44.600;26.032;2023-09-12T00:41:09;7.63;;;4.78;;
79122;SDS011;68526;44.600;26.032;2023-09-12T00:41:25;7.60;;;4.87;;
79122;SDS011;68526;44.600;26.032;2023-09-12T00:41:41;8.85;;;5.15;;
79122;SDS011;68526;44.600;26.032;2023-09-12T00:41:56;8.82;;;5.03;;
79122;SDS011;68526;44.600;26.032;2023-09-12T00:42:12;8.70;;;4.68;;
79122;SDS011;68526;44.600;26.032;2023-09-12T00:42:28;8.97;;;4.70;;
79122;SDS011;68526;44.600;26.032;2023-09-12T00:42:44;8.05;;;4.78;;
79122;SDS011;68526;44.600;26.032;2023-09-12T00:43:01;8.75;;;4.70;;
79122;SDS011;68526;44.600;26.032;2023-09-12T00:43:17;8.30;;;4.63;;
79122;SDS011;68526;44.600;26.032;2023-09-12T00:43:32;7.75;;;4.60;;
79122;SDS011;68526;44.600;26.032;2023-09-12T00:43:48;9.05;;;4.82;;
79122;SDS011;68526;44.600;26.032;2023-09-12T00:44:04;9.27;;;5.10;;
79122;SDS011;68526;44.600;26.032;2023-09-12T00:44:21;8.63;;;4.88;;
79122;SDS011;68526;44.600;26.032;2023-09-12T00:44:36;8.40;;;5.07;;
79122;SDS011;68526;44.600;26.032;2023-09-12T00:44:52;7.40;;;5.20;;
79122;SDS011;68526;44.600;26.032;2023-09-12T00:45:09;6.88;;;4.40;;
79122;SDS011;68526;44.600;26.032;2023-09-12T00:45:25;8.23;;;4.70;;
79122;SDS011;68526;44.600;26.032;2023-09-12T00:45:41;10.20;;;4.85;;
79122;SDS011;68526;44.600;26.032;2023-09-12T00:45:58;9.25;;;4.60;;
79122;SDS011;68526;44.600;26.032;2023-09-12T00:46:14;6.65;;;4.40;;
79122;SDS011;68526;44.600;26.032;2023-09-12T00:46:34;7.70;;;4.70;;
79122;SDS011;68526;44.600;26.032;2023-09-12T00:46:53;10.38;;;5.00;;
79122;SDS011;68526;44.600;26.032;2023-09-12T00:47:10;7.90;;;4.43;;
79122;SDS011;68526;44.600;26.032;2023-09-12T00:47:27;8.02;;;4.63;;
79122;SDS011;68526;44.600;26.032;2023-09-12T00:47:45;9.75;;;4.82;;
79122;SDS011;68526;44.600;26.032;2023-09-12T00:48:02;8.88;;;4.78;;
79122;SDS011;68526;44.600;26.032;2023-09-12T00:48:20;8.02;;;4.63;;
79122;SDS011;68526;44.600;26.032;2023-09-12T00:48:38;7.57;;;4.30;;
79122;SDS011;68526;44.600;26.032;2023-09-12T00:48:54;7.35;;;4.53;;
79122;SDS011;68526;44.600;26.032;2023-09-12T00:49:11;7.40;;;5.00;;
79122;SDS011;68526;44.600;26.032;2023-09-12T00:49:29;7.60;;;4.75;;
79122;SDS011;68526;44.600;26.032;2023-09-12T00:49:46;7.90;;;4.97;;
79122;SDS011;68526;44.600;26.032;2023-09-12T00:50:04;8.10;;;5.20;;
79122;SDS011;68526;44.600;26.032;2023-09-12T00:50:21;9.45;;;4.78;;
79122;SDS011;68526;44.600;26.032;2023-09-12T00:50:40;8.73;;;4.75;;
79122;SDS011;68526;44.600;26.032;2023-09-12T00:50:57;8.40;;;5.15;;
79122;SDS011;68526;44.600;26.032;2023-09-12T00:51:13;9.75;;;4.90;;
79122;SDS011;68526;44.600;26.032;2023-09-12T00:51:30;9.18;;;4.57;;
79122;SDS011;68526;44.600;26.032;2023-09-12T00:51:49;10.00;;;4.82;;
79122;SDS011;68526;44.600;26.032;2023-09-12T00:52:06;10.48;;;4.90;;
79122;SDS011;68526;44.600;26.032;2023-09-12T00:52:24;8.73;;;4.90;;
79122;SDS011;68526;44.600;26.032;2023-09-12T00:52:41;8.65;;;5.22;;
79122;SDS011;68526;44.600;26.032;2023-09-12T00:52:58;9.23;;;5.20;;
79122;SDS011;68526;44.600;26.032;2023-09-12T00:53:16;9.85;;;5.32;;
79122;SDS011;68526;44.600;26.032;2023-09-12T00:53:33;11.30;;;5.28;;
79122;SDS011;68526;44.600;26.032;2023-09-12T00:53:49;11.20;;;5.25;;
79122;SDS011;68526;44.600;26.032;2023-09-12T00:54:05;11.52;;;5.10;;
79122;SDS011;68526;44.600;26.032;2023-09-12T00:54:21;11.45;;;5.13;;
79122;SDS011;68526;44.600;26.032;2023-09-12T00:54:39;9.07;;;5.05;;
79122;SDS011;68526;44.600;26.032;2023-09-12T00:54:55;8.25;;;4.65;;
79122;SDS011;68526;44.600;26.032;2023-09-12T00:55:11;8.30;;;4.78;;
79122;SDS011;68526;44.600;26.032;2023-09-12T00:55:28;8.45;;;4.78;;
79122;SDS011;68526;44.600;26.032;2023-09-12T00:55:48;8.35;;;4.40;;
79122;SDS011;68526;44.600;26.032;2023-09-12T00:56:11;8.80;;;4.88;;
79122;SDS011;68526;44.600;26.032;2023-09-12T00:56:27;8.50;;;4.60;;
79122;SDS011;68526;44.600;26.032;2023-09-12T00:56:44;8.65;;;4.70;;
79122;SDS011;68526;44.600;26.032;2023-09-12T00:57:00;7.82;;;4.82;;
79122;SDS011;68526;44.600;26.032;2023-09-12T00:57:16;7.85;;;4.82;;
79122;SDS011;68526;44.600;26.032;2023-09-12T00:57:32;7.32;;;4.57;;
79122;SDS011;68526;44.600;26.032;2023-09-12T00:57:49;8.35;;;4.60;;
79122;SDS011;68526;44.600;26.032;2023-09-12T00:58:07;7.28;;;4.63;;
79122;SDS011;68526;44.600;26.032;2023-09-12T00:58:25;8.73;;;5.28;;
79122;SDS011;68526;44.600;26.032;2023-09-12T00:58:42;10.02;;;5.43;;
79122;SDS011;68526;44.600;26.032;2023-09-12T00:58:58;9.32;;;5.22;;
79122;SDS011;68526;44.600;26.032;2023-09-12T00:59:14;12.88;;;5.45;;
79122;SDS011;68526;44.600;26.032;2023-09-12T00:59:33;15.48;;;5.40;;
79122;SDS011;68526;44.600;26.032;2023-09-12T00:59:49;12.50;;;5.57;;
79122;SDS011;68526;44.600;26.032;2023-09-12T01:00:05;8.95;;;5.38;;
79122;SDS011;68526;44.600;26.032;2023-09-12T01:00:26;9.60;;;4.88;;
79122;SDS011;68526;44.600;26.032;2023-09-12T01:00:42;10.10;;;5.25;;
79122;SDS011;68526;44.600;26.032;2023-09-12T01:00:58;8.17;;;5.27;;
79122;SDS011;68526;44.600;26.032;2023-09-12T01:01:14;7.50;;;4.88;;
79122;SDS011;68526;44.600;26.032;2023-09-12T01:01:31;8.13;;;4.75;;
79122;SDS011;68526;44.600;26.032;2023-09-12T01:01:47;9.65;;;5.10;;
79122;SDS011;68526;44.600;26.032;2023-09-12T01:02:03;9.55;;;5.00;;
79122;SDS011;68526;44.600;26.032;2023-09-12T01:02:21;9.45;;;5.03;;
79122;SDS011;68526;44.600;26.032;2023-09-12T01:02:37;10.40;;;5.20;;
79122;SDS011;68526;44.600;26.032;2023-09-12T01:02:54;9.27;;;5.20;;
79122;SDS011;68526;44.600;26.032;2023-09-12T01:03:11;10.45;;;5.22;;
79122;SDS011;68526;44.600;26.032;2023-09-12T01:03:27;10.80;;;5.13;;
79122;SDS011;68526;44.600;26.032;2023-09-12T01:03:43;9.07;;;5.20;;
79122;SDS011;68526;44.600;26.032;2023-09-12T01:03:59;9.68;;;5.13;;
79122;SDS011;68526;44.600;26.032;2023-09-12T01:04:17;10.80;;;5.40;;
79122;SDS011;68526;44.600;26.032;2023-09-12T01:04:34;9.70;;;5.20;;
79122;SDS011;68526;44.600;26.032;2023-09-12T01:04:51;10.23;;;4.90;;
79122;SDS011;68526;44.600;26.032;2023-09-12T01:05:07;10.45;;;5.20;;
79122;SDS011;68526;44.600;26.032;2023-09-12T01:05:24;11.77;;;5.57;;
79122;SDS011;68526;44.600;26.032;2023-09-12T01:05:42;12.27;;;5.72;;
79122;SDS011;68526;44.600;26.032;2023-09-12T01:05:58;12.43;;;5.50;;
79122;SDS011;68526;44.600;26.032;2023-09-12T01:06:15;11.50;;;5.35;;
79122;SDS011;68526;44.600;26.032;2023-09-12T01:06:35;10.98;;;5.60;;
79122;SDS011;68526;44.600;26.032;2023-09-12T01:06:52;10.07;;;5.60;;
79122;SDS011;68526;44.600;26.032;2023-09-12T01:07:08;8.65;;;5.00;;
79122;SDS011;68526;44.600;26.032;2023-09-12T01:07:24;8.32;;;4.75;;
79122;SDS011;68526;44.600;26.032;2023-09-12T01:07:40;8.80;;;4.85;;
79122;SDS011;68526;44.600;26.032;2023-09-12T01:07:59;10.35;;;5.20;;
79122;SDS011;68526;44.600;26.032;2023-09-12T01:08:15;10.93;;;5.32;;
79122;SDS011;68526;44.600;26.032;2023-09-12T01:08:31;10.68;;;4.93;;
79122;SDS011;68526;44.600;26.032;2023-09-12T01:08:47;9.30;;;5.00;;
79122;SDS011;68526;44.600;26.032;2023-09-12T01:09:03;7.97;;;4.80;;
79122;SDS011;68526;44.600;26.032;2023-09-12T01:09:19;8.07;;;4.75;;
79122;SDS011;68526;44.600;26.032;2023-09-12T01:09:35;7.47;;;4.87;;
79122;SDS011;68526;44.600;26.032;2023-09-12T01:09:51;7.35;;;5.40;;
79122;SDS011;68526;44.600;26.032;2023-09-12T01:10:07;8.02;;;5.60;;
79122;SDS011;68526;44.600;26.032;2023-09-12T01:10:24;8.80;;;4.90;;
79122;SDS011;68526;44.600;26.032;2023-09-12T01:10:40;8.75;;;4.90;;
79122;SDS011;68526;44.600;26.032;2023-09-12T01:11:02;8.90;;;5.00;;
79122;SDS011;68526;44.600;26.032;2023-09-12T01:11:19;11.43;;;5.22;;
79122;SDS011;68526;44.600;26.032;2023-09-12T01:11:36;12.43;;;5.32;;
79122;SDS011;68526;44.600;26.032;2023-09-12T01:11:51;9.50;;;5.15;;
79122;SDS011;68526;44.600;26.032;2023-09-12T01:12:08;7.78;;;4.90;;
79122;SDS011;68526;44.600;26.032;2023-09-12T01:12:23;9.70;;;4.90;;
79122;SDS011;68526;44.600;26.032;2023-09-12T01:12:40;11.40;;;5.00;;
79122;SDS011;68526;44.600;26.032;2023-09-12T01:12:56;9.93;;;5.07;;
79122;SDS011;68526;44.600;26.032;2023-09-12T01:13:12;8.68;;;4.72;;
79122;SDS011;68526;44.600;26.032;2023-09-12T01:13:29;9.13;;;4.63;;
79122;SDS011;68526;44.600;26.032;2023-09-12T01:13:45;9.05;;;4.82;;
79122;SDS011;68526;44.600;26.032;2023-09-12T01:14:01;10.25;;;4.95;;
79122;SDS011;68526;44.600;26.032;2023-09-12T01:14:18;9.95;;;5.25;;
79122;SDS011;68526;44.600;26.032;2023-09-12T01:14:34;7.95;;;5.20;;
79122;SDS011;68526;44.600;26.032;2023-09-12T01:14:49;7.13;;;4.90;;
79122;SDS011;68526;44.600;26.032;2023-09-12T01:15:06;9.48;;;5.05;;
79122;SDS011;68526;44.600;26.032;2023-09-12T01:15:28;7.53;;;5.03;;
79122;SDS011;68526;44.600;26.032;2023-09-12T01:15:44;7.93;;;5.18;;
79122;SDS011;68526;44.600;26.032;2023-09-12T01:16:00;8.33;;;5.00;;
79122;SDS011;68526;44.600;26.032;2023-09-12T01:16:17;8.55;;;4.97;;
79122;SDS011;68526;44.600;26.032;2023-09-12T01:16:33;10.60;;;5.13;;
79122;SDS011;68526;44.600;26.032;2023-09-12T01:16:48;10.35;;;4.95;;
79122;SDS011;68526;44.600;26.032;2023-09-12T01:17:04;9.43;;;5.15;;
79122;SDS011;68526;44.600;26.032;2023-09-12T01:17:20;9.43;;;5.20;;
79122;SDS011;68526;44.600;26.032;2023-09-12T01:17:36;9.52;;;5.20;;
79122;SDS011;68526;44.600;26.032;2023-09-12T01:17:52;8.33;;;5.00;;
79122;SDS011;68526;44.600;26.032;2023-09-12T01:18:09;8.23;;;4.85;;
79122;SDS011;68526;44.600;26.032;2023-09-12T01:18:26;9.13;;;5.15;;
79122;SDS011;68526;44.600;26.032;2023-09-12T01:18:42;8.73;;;5.10;;
79122;SDS011;68526;44.600;26.032;2023-09-12T01:18:58;8.77;;;4.90;;
79122;SDS011;68526;44.600;26.032;2023-09-12T01:19:14;10.07;;;5.30;;
79122;SDS011;68526;44.600;26.032;2023-09-12T01:19:31;8.20;;;4.90;;
79122;SDS011;68526;44.600;26.032;2023-09-12T01:19:48;7.53;;;5.10;;
79122;SDS011;68526;44.600;26.032;2023-09-12T01:20:04;8.50;;;4.90;;
79122;SDS011;68526;44.600;26.032;2023-09-12T01:20:24;8.60;;;5.00;;
79122;SDS011;68526;44.600;26.032;2023-09-12T01:20:46;7.88;;;4.70;;
79122;SDS011;68526;44.600;26.032;2023-09-12T01:22:27;9.02;;;5.10;;
79122;SDS011;68526;44.600;26.032;2023-09-12T01:22:57;7.85;;;4.30;;
79122;SDS011;68526;44.600;26.032;2023-09-12T01:23:27;6.63;;;4.70;;
79122;SDS011;68526;44.600;26.032;2023-09-12T01:23:59;8.45;;;4.80;;
79122;SDS011;68526;44.600;26.032;2023-09-12T01:24:33;8.88;;;5.05;;
79122;SDS011;68526;44.600;26.032;2023-09-12T01:25:14;9.35;;;5.15;;
79122;SDS011;68526;44.600;26.032;2023-09-12T01:26:00;9.43;;;5.15;;
79122;SDS011;68526;44.600;26.032;2023-09-12T01:26:29;10.27;;;5.35;;
79122;SDS011;68526;44.600;26.032;2023-09-12T01:26:49;11.27;;;5.33;;
79122;SDS011;68526;44.600;26.032;2023-09-12T01:27:19;10.90;;;5.43;;
79122;SDS011;68526;44.600;26.032;2023-09-12T01:27:37;10.07;;;5.30;;
79122;SDS011;68526;44.600;26.032;2023-09-12T01:27:56;9.68;;;5.50;;
79122;SDS011;68526;44.600;26.032;2023-09-12T01:28:17;10.23;;;5.40;;
79122;SDS011;68526;44.600;26.032;2023-09-12T01:28:35;11.52;;;5.53;;
79122;SDS011;68526;44.600;26.032;2023-09-12T01:28:57;10.82;;;5.35;;
79122;SDS011;68526;44.600;26.032;2023-09-12T01:29:14;9.93;;;5.30;;
79122;SDS011;68526;44.600;26.032;2023-09-12T01:29:31;10.13;;;5.18;;
79122;SDS011;68526;44.600;26.032;2023-09-12T01:29:51;10.48;;;5.50;;
79122;SDS011;68526;44.600;26.032;2023-09-12T01:30:11;8.75;;;5.25;;
79122;SDS011;68526;44.600;26.032;2023-09-12T01:30:32;9.75;;;5.00;;
79122;SDS011;68526;44.600;26.032;2023-09-12T01:30:51;7.88;;;5.10;;
79122;SDS011;68526;44.600;26.032;2023-09-12T01:31:08;9.10;;;5.22;;
79122;SDS011;68526;44.600;26.032;2023-09-12T01:31:24;10.35;;;5.68;;
79122;SDS011;68526;44.600;26.032;2023-09-12T01:31:41;9.38;;;6.05;;
79122;SDS011;68526;44.600;26.032;2023-09-12T01:31:58;8.95;;;5.97;;
79122;SDS011;68526;44.600;26.032;2023-09-12T01:32:15;8.07;;;5.47;;
79122;SDS011;68526;44.600;26.032;2023-09-12T01:32:33;10.68;;;5.38;;
79122;SDS011;68526;44.600;26.032;2023-09-12T01:32:51;10.18;;;5.68;;
79122;SDS011;68526;44.600;26.032;2023-09-12T01:33:08;11.35;;;5.60;;
79122;SDS011;68526;44.600;26.032;2023-09-12T01:33:24;11.75;;;5.50;;
79122;SDS011;68526;44.600;26.032;2023-09-12T01:33:41;9.25;;;5.32;;
79122;SDS011;68526;44.600;26.032;2023-09-12T01:33:56;10.20;;;5.30;;
79122;SDS011;68526;44.600;26.032;2023-09-12T01:34:12;9.88;;;5.20;;
79122;SDS011;68526;44.600;26.032;2023-09-12T01:34:29;9.68;;;5.25;;
79122;SDS011;68526;44.600;26.032;2023-09-12T01:34:46;9.32;;;5.65;;
79122;SDS011;68526;44.600;26.032;2023-09-12T01:35:02;10.63;;;5.53;;
79122;SDS011;68526;44.600;26.032;2023-09-12T01:35:18;12.63;;;5.60;;
79122;SDS011;68526;44.600;26.032;2023-09-12T01:35:34;10.23;;;5.28;;
79122;SDS011;68526;44.600;26.032;2023-09-12T01:35:50;7.88;;;5.13;;
79122;SDS011;68526;44.600;26.032;2023-09-12T01:36:06;8.43;;;5.47;;
79122;SDS011;68526;44.600;26.032;2023-09-12T01:36:24;9.93;;;5.60;;
79122;SDS011;68526;44.600;26.032;2023-09-12T01:36:40;9.48;;;5.90;;
79122;SDS011;68526;44.600;26.032;2023-09-12T01:36:56;9.20;;;5.85;;
79122;SDS011;68526;44.600;26.032;2023-09-12T01:37:12;9.07;;;5.80;;
79122;SDS011;68526;44.600;26.032;2023-09-12T01:37:28;9.33;;;5.63;;
79122;SDS011;68526;44.600;26.032;2023-09-12T01:37:45;12.27;;;5.78;;
79122;SDS011;68526;44.600;26.032;2023-09-12T01:38:00;14.40;;;5.95;;
79122;SDS011;68526;44.600;26.032;2023-09-12T01:38:16;14.95;;;5.93;;
79122;SDS011;68526;44.600;26.032;2023-09-12T01:38:33;11.57;;;6.05;;
79122;SDS011;68526;44.600;26.032;2023-09-12T01:38:49;10.73;;;6.20;;
79122;SDS011;68526;44.600;26.032;2023-09-12T01:39:05;10.65;;;5.88;;
79122;SDS011;68526;44.600;26.032;2023-09-12T01:39:21;9.85;;;5.70;;
79122;SDS011;68526;44.600;26.032;2023-09-12T01:39:37;9.10;;;6.07;;
79122;SDS011;68526;44.600;26.032;2023-09-12T01:39:53;9.82;;;6.30;;
79122;SDS011;68526;44.600;26.032;2023-09-12T01:40:09;10.55;;;6.35;;
79122;SDS011;68526;44.600;26.032;2023-09-12T01:40:27;12.82;;;6.20;;
79122;SDS011;68526;44.600;26.032;2023-09-12T01:40:51;12.20;;;6.20;;
79122;SDS011;68526;44.600;26.032;2023-09-12T01:41:08;11.27;;;6.30;;
79122;SDS011;68526;44.600;26.032;2023-09-12T01:41:24;11.10;;;5.88;;
79122;SDS011;68526;44.600;26.032;2023-09-12T01:41:40;11.82;;;6.05;;
79122;SDS011;68526;44.600;26.032;2023-09-12T01:42:00;12.27;;;6.05;;
79122;SDS011;68526;44.600;26.032;2023-09-12T01:42:20;11.23;;;5.57;;